LEBL/BCN METAR and TAF weather

Enter ICAO airport designator
Station Type Date Time Source
LEBL METAR 2020/06/05 12:00 UTC NOAA

LEBL 051200Z 16011KT 130V190 CAVOK 23/13 Q1009 NOSIG


Station Type Date Time Source
LEBL Decoded METAR 2020/06/05 12:00 UTC NOAA

Barcelona / Aeropuerto, Spain (LEBL) 41-17N 002-04E 6M
Jun 05, 2020 - 08:00 AM EDT / 2020.06.05 1200 UTC
Wind: from the SSE (160 degrees) at 13 MPH (11 KT) (direction variable):0
Visibility: greater than 7 mile(s):0
Temperature: 73 F (23 C)
Dew Point: 55 F (13 C)
Relative Humidity: 53%
Pressure (altimeter): 29.80 in. Hg (1009 hPa)
ob: LEBL 051200Z 16011KT 130V190 CAVOK 23/13 Q1009 NOSIG
cycle: 12

Station Type Date Time Source
LEBL TAF 2020/06/05 12:27 UTC NOAA

TAF LEBL 051100Z 0512/0612 22012KT CAVOK TX26/0512Z TN17/0606Z
TEMPO 0512/0520 22015G25KT
BECMG 0518/0520 34007KT
BECMG 0606/0608 09010KT

Example: see airport list